createdAt,value
2019-02-05T00:00:09.773Z,98556.91
2019-02-05T00:02:38.080Z,98552.75
2019-02-05T00:05:06.343Z,98547.55
2019-02-05T00:07:34.637Z,98550.70
2019-02-05T00:10:04.642Z,98547.02
2019-02-05T00:12:32.925Z,98552.30
2019-02-05T00:15:01.227Z,98552.87
2019-02-05T00:17:29.484Z,98557.92
2019-02-05T00:19:57.814Z,98560.08
2019-02-05T00:22:26.288Z,98557.73
2019-02-05T00:24:54.583Z,98568.23
2019-02-05T00:27:22.920Z,98579.27
2019-02-05T00:29:51.330Z,98579.81
2019-02-05T00:32:19.626Z,98582.02
2019-02-05T00:34:47.906Z,98582.70
2019-02-05T00:37:16.249Z,98593.06
2019-02-05T00:39:44.537Z,98588.27
2019-02-05T00:42:12.830Z,98599.77
2019-02-05T00:44:41.101Z,98597.97
2019-02-05T00:47:09.371Z,98590.03
2019-02-05T00:49:37.667Z,98599.30
2019-02-05T00:52:05.925Z,98596.53
2019-02-05T00:54:34.481Z,98592.19
2019-02-05T00:57:02.762Z,98592.84
2019-02-05T00:59:31.042Z,98591.10
2019-02-05T01:01:59.324Z,98587.41
2019-02-05T01:04:27.590Z,98590.87
2019-02-05T01:06:55.849Z,98589.42
2019-02-05T01:09:24.126Z,98578.42
2019-02-05T01:11:52.391Z,98576.42
2019-02-05T01:14:20.762Z,98567.84
2019-02-05T01:16:49.075Z,98567.48
2019-02-05T01:19:17.357Z,97772.75
2019-02-05T01:21:45.718Z,98560.27
2019-02-05T01:24:14.034Z,98558.60
2019-02-05T01:26:42.509Z,98565.52
2019-02-05T01:29:10.782Z,98324.20
2019-02-05T01:31:39.083Z,98572.88
2019-02-05T01:34:07.375Z,98573.31
2019-02-05T01:36:35.720Z,98571.41
2019-02-05T01:39:05.109Z,98571.08
2019-02-05T01:41:33.868Z,98559.47
2019-02-05T01:44:02.147Z,98559.15
2019-02-05T01:46:30.439Z,98562.72
2019-02-05T01:48:58.716Z,98558.93
2019-02-05T01:51:27.048Z,98558.60
2019-02-05T01:53:55.293Z,98549.23
2019-02-05T01:56:23.554Z,98552.25
2019-02-05T01:58:51.862Z,98543.89
2019-02-05T02:01:20.240Z,98539.09
2019-02-05T02:03:48.506Z,98533.73
2019-02-05T02:06:16.789Z,98527.89
2019-02-05T02:08:45.099Z,98528.69
2019-02-05T02:11:13.424Z,98523.31
2019-02-05T02:13:42.280Z,98533.09
2019-02-05T02:16:10.568Z,98528.55
2019-02-05T02:18:38.830Z,98534.68
2019-02-05T02:21:07.127Z,98536.34
2019-02-05T02:23:35.397Z,98544.59
2019-02-05T02:26:03.680Z,98550.63
2019-02-05T02:28:31.956Z,98545.42
2019-02-05T02:31:00.636Z,98548.88
2019-02-05T02:33:28.907Z,98543.29
2019-02-05T02:35:57.174Z,98545.86
2019-02-05T02:38:25.472Z,98553.78
2019-02-05T02:40:53.731Z,98556.89
2019-02-05T02:43:22.059Z,98562.70
2019-02-05T02:45:50.372Z,98556.53
2019-02-05T02:48:18.641Z,98551.41
2019-02-05T02:50:46.948Z,98534.89
2019-02-05T02:53:15.269Z,98526.85
2019-02-05T02:55:43.551Z,98522.48
2019-02-05T02:58:13.638Z,98520.47
2019-02-05T03:00:41.815Z,98517.55
2019-02-05T03:03:10.265Z,98515.63
2019-02-05T03:05:38.590Z,98516.96
2019-02-05T03:08:06.867Z,98528.11
2019-02-05T03:10:35.241Z,98531.32
2019-02-05T03:13:03.539Z,98537.45
2019-02-05T03:15:41.065Z,98539.80
2019-02-05T03:18:10.963Z,98534.17
2019-02-05T03:20:39.376Z,98366.92
2019-02-05T03:23:07.715Z,98530.01
2019-02-05T03:25:35.995Z,98531.81
2019-02-05T03:28:04.296Z,98533.41
2019-02-05T03:30:32.602Z,98534.31
2019-02-05T03:33:00.998Z,98537.16
2019-02-05T03:35:31.021Z,98531.66
2019-02-05T03:37:59.685Z,98528.63
2019-02-05T03:40:31.277Z,98523.02
2019-02-05T03:42:59.638Z,98519.65
2019-02-05T03:45:27.982Z,98526.06
2019-02-05T03:47:59.701Z,98531.55
2019-02-05T03:50:28.051Z,98531.67
2019-02-05T03:53:14.506Z,98521.42
2019-02-05T03:55:50.865Z,98520.09
2019-02-05T03:58:45.051Z,98515.70
2019-02-05T04:01:22.186Z,98502.73
2019-02-05T04:04:13.224Z,98501.72
2019-02-05T04:07:14.817Z,98508.98
2019-02-05T04:10:02.747Z,98102.84
2019-02-05T04:12:49.206Z,98495.05
2019-02-05T04:15:32.787Z,98491.63
2019-02-05T04:18:20.553Z,98484.52
2019-02-05T04:20:58.002Z,98479.88
2019-02-05T04:23:50.835Z,98475.58
2019-02-05T04:26:54.331Z,98476.92
2019-02-05T04:29:53.173Z,98484.04
2019-02-05T04:32:36.800Z,98483.29
2019-02-05T04:35:29.474Z,98490.56
2019-02-05T04:38:23.280Z,98502.03
2019-02-05T04:41:00.791Z,98498.09
2019-02-05T04:43:52.977Z,98502.89
2019-02-05T04:46:45.534Z,98516.88
2019-02-05T04:49:33.448Z,98498.37
2019-02-05T04:52:10.845Z,98492.00
2019-02-05T04:55:03.426Z,98488.22
2019-02-05T04:57:41.020Z,98485.69
2019-02-05T05:00:15.307Z,98494.22
2019-02-05T05:02:52.726Z,98502.06
2019-02-05T05:05:45.455Z,98521.55
2019-02-05T05:08:36.251Z,98512.45
2019-02-05T05:11:04.566Z,98516.42
2019-02-05T05:13:33.203Z,98522.10
2019-02-05T05:16:01.478Z,98529.48
2019-02-05T05:18:29.776Z,98528.70
2019-02-05T05:20:58.170Z,98524.10
2019-02-05T05:23:26.543Z,98530.40
2019-02-05T05:25:54.830Z,98536.09
2019-02-05T05:28:23.096Z,98541.12
2019-02-05T05:30:51.737Z,98552.02
2019-02-05T05:33:20.093Z,98547.25
2019-02-05T05:35:48.354Z,98552.05
2019-02-05T05:38:18.980Z,98553.55
2019-02-05T05:40:47.311Z,98550.94
2019-02-05T05:43:15.606Z,98554.60
2019-02-05T05:45:43.886Z,98547.23
2019-02-05T05:48:12.755Z,98539.82
2019-02-05T05:50:41.029Z,98533.45
2019-02-05T05:53:09.322Z,98526.02
2019-02-05T05:55:37.599Z,98526.02
2019-02-05T05:58:05.898Z,98523.23
2019-02-05T06:00:34.235Z,98527.94
2019-02-05T06:03:02.566Z,98542.70
2019-02-05T06:05:31.220Z,98548.32
2019-02-05T06:07:59.526Z,98548.11
2019-02-05T06:10:27.778Z,98553.23
2019-02-05T06:12:56.068Z,98552.58
2019-02-05T06:15:24.427Z,98546.44
2019-02-05T06:17:52.706Z,98546.13
2019-02-05T06:20:21.032Z,98559.91
2019-02-05T06:22:49.788Z,98559.09
2019-02-05T06:25:18.156Z,98562.67
2019-02-05T06:27:46.541Z,98570.41
2019-02-05T06:30:16.689Z,98578.30
2019-02-05T06:32:44.990Z,98581.84
2019-02-05T06:35:13.326Z,98581.45
2019-02-05T06:37:41.791Z,98589.09
2019-02-05T06:40:16.702Z,98590.14
2019-02-05T06:42:45.005Z,98596.27
2019-02-05T06:45:14.858Z,98586.90
2019-02-05T06:47:43.132Z,98582.41
2019-02-05T06:50:12.861Z,98594.34
2019-02-05T06:52:41.140Z,98593.32
2019-02-05T06:55:12.069Z,98597.28
2019-02-05T06:57:40.359Z,98592.52
2019-02-05T07:00:12.046Z,98584.77
2019-02-05T07:02:40.370Z,97885.67
2019-02-05T07:05:11.102Z,98589.80
2019-02-05T07:07:39.372Z,98597.69
2019-02-05T07:10:13.854Z,98591.12
2019-02-05T07:12:42.125Z,98599.64
2019-02-05T07:15:10.884Z,98605.47
2019-02-05T07:17:49.220Z,98621.34
2019-02-05T07:20:12.155Z,98631.69
2019-02-05T07:22:40.449Z,98630.09
2019-02-05T07:25:12.119Z,98629.16
2019-02-05T07:27:40.446Z,98628.69
2019-02-05T07:30:11.992Z,98626.92
2019-02-05T07:32:40.304Z,98625.20
2019-02-05T07:35:08.605Z,98624.48
2019-02-05T07:37:36.906Z,98624.20
2019-02-05T07:40:13.706Z,98621.08
2019-02-05T07:42:42.158Z,98618.55
2019-02-05T07:45:13.179Z,98608.59
2019-02-05T07:47:41.489Z,98616.51
2019-02-05T07:50:18.183Z,98614.39
2019-02-05T07:52:46.547Z,98608.73
2019-02-05T07:55:14.822Z,98612.77
2019-02-05T07:57:43.455Z,98608.87
2019-02-05T08:00:18.567Z,98608.88
2019-02-05T08:02:46.934Z,98599.22
2019-02-05T08:05:20.681Z,98593.63
2019-02-05T08:07:49.555Z,98596.91
2019-02-05T08:10:20.067Z,98600.59
2019-02-05T08:12:48.506Z,98601.23
2019-02-05T08:15:22.559Z,98598.72
2019-02-05T08:17:50.891Z,98598.29
2019-02-05T08:20:19.186Z,98605.13
2019-02-05T08:22:47.452Z,98612.30
2019-02-05T08:25:15.812Z,98618.05
2019-02-05T08:27:44.086Z,98625.88
2019-02-05T08:30:15.598Z,98625.61
2019-02-05T08:32:43.866Z,98618.62
2019-02-05T08:35:14.890Z,98622.55
2019-02-05T08:37:43.152Z,98629.05
2019-02-05T08:40:14.285Z,98627.85
2019-02-05T08:42:42.568Z,98628.12
2019-02-05T08:45:14.331Z,98625.02
2019-02-05T08:47:43.105Z,98622.24
2019-02-05T08:50:14.355Z,98623.88
2019-02-05T08:52:42.619Z,98628.52
2019-02-05T08:55:16.128Z,98635.82
2019-02-05T08:57:44.397Z,98640.99
2019-02-05T09:00:18.355Z,98640.19
2019-02-05T09:02:46.924Z,98638.19
2019-02-05T09:05:16.244Z,98643.33
2019-02-05T09:07:44.496Z,98647.73
2019-02-05T09:10:18.827Z,98643.02
2019-02-05T09:12:47.127Z,98649.33
2019-02-05T09:15:15.396Z,98641.48
2019-02-05T09:17:43.687Z,98651.31
2019-02-05T09:20:20.510Z,98657.38
2019-02-05T09:22:48.766Z,98665.29
2019-02-05T09:25:17.967Z,98670.62
2019-02-05T09:27:46.233Z,98684.09
2019-02-05T09:30:20.705Z,98683.13
2019-02-05T09:32:50.395Z,98682.52
2019-02-05T09:35:18.662Z,98688.75
2019-02-05T09:37:46.923Z,98689.10
2019-02-05T09:40:23.756Z,98695.17
2019-02-05T09:42:52.023Z,98700.56
2019-02-05T09:45:20.353Z,98705.13
2019-02-05T09:47:48.639Z,98703.64
2019-02-05T09:50:17.917Z,98691.23
2019-02-05T09:52:46.181Z,98690.61
2019-02-05T09:55:18.998Z,98699.85
2019-02-05T09:57:47.263Z,98706.34
2019-02-05T10:00:35.153Z,98701.47
2019-02-05T10:03:03.491Z,98699.98
2019-02-05T10:05:33.546Z,98696.71
2019-02-05T10:08:01.856Z,98697.29
2019-02-05T10:10:30.274Z,98696.66
2019-02-05T10:12:58.546Z,98705.70
2019-02-05T10:15:31.918Z,98711.09
2019-02-05T10:18:01.011Z,98163.02
2019-02-05T10:20:29.331Z,98708.61
2019-02-05T10:23:00.283Z,98715.23
2019-02-05T10:25:28.561Z,98718.48
2019-02-05T10:27:56.897Z,98720.48
2019-02-05T10:30:28.064Z,98720.21
2019-02-05T10:32:56.597Z,98717.75
2019-02-05T10:35:24.944Z,98719.75
2019-02-05T10:37:53.330Z,98725.45
2019-02-05T10:40:22.896Z,98728.13
2019-02-05T10:42:51.178Z,98725.03
2019-02-05T10:45:21.246Z,98728.28
2019-02-05T10:47:49.546Z,98723.22
2019-02-05T10:50:19.219Z,98720.61
2019-02-05T10:52:47.516Z,98718.51
2019-02-05T10:55:18.278Z,98714.27
2019-02-05T10:57:47.797Z,98718.84
2019-02-05T11:00:32.602Z,98717.61
2019-02-05T11:03:06.441Z,98716.60
2019-02-05T11:05:34.763Z,98714.80
2019-02-05T11:08:03.196Z,98708.64
2019-02-05T11:10:31.489Z,98711.64
2019-02-05T11:12:59.759Z,98721.89
2019-02-05T11:15:32.886Z,98739.41
2019-02-05T11:18:02.446Z,98743.31
2019-02-05T11:20:30.893Z,98736.98
2019-02-05T11:22:59.231Z,98730.84
2019-02-05T11:25:27.477Z,98729.46
2019-02-05T11:27:55.796Z,98721.52
2019-02-05T11:30:29.891Z,98722.08
2019-02-05T11:32:58.275Z,98720.27
2019-02-05T11:35:26.571Z,98719.22
2019-02-05T11:37:54.843Z,98720.13
2019-02-05T11:40:26.115Z,98716.79
2019-02-05T11:42:54.389Z,98714.69
2019-02-05T11:45:22.661Z,98719.64
2019-02-05T11:47:50.998Z,98715.78
2019-02-05T11:50:19.380Z,98728.36
2019-02-05T11:52:50.929Z,98728.36
2019-02-05T11:55:27.853Z,98722.73
2019-02-05T11:57:57.835Z,98724.72
2019-02-05T12:00:33.341Z,98728.06
2019-02-05T12:03:01.652Z,98724.34
2019-02-05T12:05:31.548Z,98715.00
2019-02-05T12:08:00.320Z,98712.71
2019-02-05T12:10:28.579Z,98708.84
2019-02-05T12:12:56.975Z,98717.55
2019-02-05T12:15:25.241Z,98719.77
2019-02-05T12:17:53.547Z,98714.66
2019-02-05T12:20:24.909Z,98712.52
2019-02-05T12:22:53.493Z,98714.44
2019-02-05T12:25:25.264Z,98709.14
2019-02-05T12:27:53.600Z,98710.61
2019-02-05T12:30:45.204Z,98703.17
2019-02-05T12:33:11.544Z,98707.64
2019-02-05T12:35:40.063Z,98703.80
2019-02-05T12:38:11.326Z,98701.17
2019-02-05T12:40:39.706Z,98709.44
2019-02-05T12:43:08.229Z,98713.69
2019-02-05T12:45:38.063Z,98711.05
2019-02-05T12:48:06.786Z,98710.38
2019-02-05T12:50:37.387Z,98707.22
2019-02-05T12:53:06.129Z,98704.40
2019-02-05T12:55:34.487Z,98700.16
2019-02-05T12:58:03.018Z,98693.80
2019-02-05T13:00:37.188Z,98692.41
2019-02-05T13:03:06.079Z,98698.05
2019-02-05T13:05:34.422Z,98692.41
2019-02-05T13:08:05.411Z,98700.34
2019-02-05T13:10:41.079Z,98709.91
2019-02-05T13:13:11.165Z,98708.08
2019-02-05T13:15:39.507Z,98706.69
2019-02-05T13:18:07.899Z,98714.28
2019-02-05T13:20:36.686Z,98714.50
2019-02-05T13:23:05.903Z,98715.21
2019-02-05T13:25:34.664Z,98713.48
2019-02-05T13:28:03.107Z,98721.81
2019-02-05T13:30:38.150Z,98720.23
2019-02-05T13:33:09.000Z,98723.80
2019-02-05T13:35:37.396Z,98721.53
2019-02-05T13:38:06.528Z,98723.86
2019-02-05T13:40:34.856Z,98721.72
2019-02-05T13:43:03.236Z,98719.92
2019-02-05T13:45:33.390Z,98709.63
2019-02-05T13:48:02.098Z,98706.63
2019-02-05T13:50:33.417Z,98705.57
2019-02-05T13:53:04.287Z,98702.38
2019-02-05T13:55:37.727Z,98698.29
2019-02-05T13:58:06.151Z,98697.70
2019-02-05T14:00:37.805Z,98700.52
2019-02-05T14:03:07.800Z,98695.04
2019-02-05T14:05:36.225Z,98695.75
2019-02-05T14:08:04.582Z,98697.73
2019-02-05T14:10:35.077Z,98701.27
2019-02-05T14:13:03.432Z,98692.59
2019-02-05T14:15:34.285Z,98697.17
2019-02-05T14:18:03.033Z,98696.99
2019-02-05T14:20:31.313Z,98693.98
2019-02-05T14:22:59.704Z,98698.57
2019-02-05T14:25:27.935Z,98690.61
2019-02-05T14:27:56.334Z,98691.66
2019-02-05T14:30:36.308Z,98688.81
2019-02-05T14:33:04.936Z,98693.59
2019-02-05T14:35:33.208Z,98688.59
2019-02-05T14:38:01.488Z,98690.73
2019-02-05T14:40:31.526Z,98681.31
2019-02-05T14:42:59.795Z,98686.42
2019-02-05T14:45:28.146Z,98683.39
2019-02-05T14:47:56.686Z,98690.11
2019-02-05T14:50:27.905Z,98692.40
2019-02-05T14:52:56.391Z,98694.12
2019-02-05T14:55:24.631Z,98704.04
2019-02-05T14:57:52.978Z,98694.99
2019-02-05T15:00:30.368Z,98691.39
2019-02-05T15:03:01.907Z,98694.20
2019-02-05T15:05:30.367Z,98690.07
2019-02-05T15:07:58.886Z,98689.02
2019-02-05T15:10:27.324Z,98696.41
2019-02-05T15:12:55.615Z,98703.38
2019-02-05T15:15:26.173Z,98694.70
2019-02-05T15:17:54.600Z,98701.70
2019-02-05T15:20:31.516Z,98704.13
2019-02-05T15:22:59.956Z,98707.99
2019-02-05T15:25:28.252Z,98702.80
2019-02-05T15:27:56.648Z,98696.80
2019-02-05T15:30:28.197Z,98701.32
2019-02-05T15:33:13.547Z,98699.84
2019-02-05T15:35:43.445Z,98694.70
2019-02-05T15:38:14.159Z,98698.42
2019-02-05T15:40:42.536Z,98702.60
2019-02-05T15:43:11.026Z,98704.69
2019-02-05T15:45:39.488Z,98698.05
2019-02-05T15:48:08.571Z,98692.53
2019-02-05T15:50:37.054Z,98696.95
2019-02-05T15:53:05.310Z,98697.61
2019-02-05T15:55:33.587Z,98691.32
2019-02-05T15:58:02.120Z,98696.25
2019-02-05T16:00:30.384Z,98700.95
2019-02-05T16:02:58.735Z,98693.27
2019-02-05T16:05:27.161Z,98697.77
2019-02-05T16:07:55.567Z,98703.05
2019-02-05T16:10:24.767Z,98700.55
2019-02-05T16:12:53.056Z,98700.50
2019-02-05T16:15:21.312Z,98703.48
2019-02-05T16:17:50.102Z,98698.62
2019-02-05T16:20:19.604Z,98700.16
2019-02-05T16:22:49.040Z,98694.69
2019-02-05T16:25:17.532Z,98705.89
2019-02-05T16:27:45.786Z,98707.05
2019-02-05T16:30:32.011Z,98711.92
2019-02-05T16:33:00.276Z,98708.44
2019-02-05T16:35:28.663Z,98708.71
2019-02-05T16:37:56.999Z,98711.63
2019-02-05T16:40:27.984Z,98715.97
2019-02-05T16:43:03.700Z,98720.00
2019-02-05T16:45:32.360Z,98720.21
2019-02-05T16:48:00.629Z,98732.32
2019-02-05T16:50:40.836Z,98730.19
2019-02-05T16:53:09.773Z,98734.38
2019-02-05T16:55:38.029Z,98733.65
2019-02-05T16:58:06.922Z,98738.19
2019-02-05T17:00:36.243Z,98742.87
2019-02-05T17:03:04.892Z,98747.49
2019-02-05T17:05:35.403Z,98741.88
2019-02-05T17:08:03.682Z,98744.14
2019-02-05T17:10:31.940Z,98741.34
2019-02-05T17:13:00.213Z,98746.53
2019-02-05T17:15:28.473Z,98750.02
2019-02-05T17:17:56.731Z,98757.22
2019-02-05T17:20:27.236Z,98758.05
2019-02-05T17:22:55.493Z,98756.57
2019-02-05T17:25:31.858Z,98757.72
2019-02-05T17:28:01.810Z,98757.64
2019-02-05T17:30:32.310Z,98757.43
2019-02-05T17:33:00.578Z,98757.02
2019-02-05T17:35:28.863Z,98758.42
2019-02-05T17:37:57.123Z,98754.34
2019-02-05T17:40:26.530Z,98756.38
2019-02-05T17:42:55.532Z,98756.47
2019-02-05T17:45:29.470Z,98753.03
2019-02-05T17:47:58.032Z,98760.92
2019-02-05T17:50:26.314Z,98758.33
2019-02-05T17:52:54.581Z,98762.56
2019-02-05T17:55:22.835Z,98761.75
2019-02-05T17:57:51.098Z,98757.64
2019-02-05T18:00:25.365Z,98762.93
2019-02-05T18:02:53.637Z,98765.61
2019-02-05T18:05:21.909Z,98766.14
2019-02-05T18:07:50.178Z,98763.88
2019-02-05T18:10:27.248Z,98762.98
2019-02-05T18:12:55.522Z,98779.16
2019-02-05T18:15:29.400Z,98775.59
2019-02-05T18:17:57.657Z,98774.60
2019-02-05T18:20:25.930Z,98778.50
2019-02-05T18:22:54.541Z,98785.69
2019-02-05T18:25:22.817Z,98783.72
2019-02-05T18:27:51.116Z,98784.95
2019-02-05T18:30:27.371Z,98786.88
2019-02-05T18:33:03.320Z,98781.53
2019-02-05T18:35:25.666Z,98779.06
2019-02-05T18:37:54.030Z,98784.12
2019-02-05T18:40:26.914Z,98781.66
2019-02-05T18:42:55.201Z,98781.98
2019-02-05T18:45:23.469Z,98782.55
2019-02-05T18:47:51.802Z,98780.96
2019-02-05T18:50:24.715Z,98781.45
2019-02-05T18:52:53.010Z,98785.05
2019-02-05T18:55:22.905Z,98783.49
2019-02-05T18:57:51.189Z,98786.38
2019-02-05T19:00:22.721Z,98789.66
2019-02-05T19:02:51.008Z,98789.12
2019-02-05T19:05:26.149Z,98785.62
2019-02-05T19:07:54.441Z,98783.16
2019-02-05T19:10:27.939Z,98785.95
2019-02-05T19:12:56.207Z,98783.38
2019-02-05T19:15:32.500Z,98784.80
2019-02-05T19:18:01.144Z,98791.77
2019-02-05T19:20:31.079Z,98792.64
2019-02-05T19:22:59.583Z,98795.17
2019-02-05T19:25:44.606Z,98797.22
2019-02-05T19:28:26.036Z,98798.86
2019-02-05T19:30:55.967Z,98802.65
2019-02-05T19:33:27.137Z,98800.31
2019-02-05T19:35:54.226Z,98804.70
2019-02-05T19:38:22.497Z,98798.77
2019-02-05T19:40:57.650Z,98803.16
2019-02-05T19:43:23.182Z,98800.55
2019-02-05T19:46:07.333Z,98800.67
2019-02-05T19:48:40.150Z,98805.75
2019-02-05T19:51:08.601Z,98810.88
2019-02-05T19:53:36.908Z,98807.88
2019-02-05T19:56:05.620Z,98811.16
2019-02-05T19:58:34.478Z,98801.72
2019-02-05T20:01:02.892Z,98802.74
2019-02-05T20:03:38.340Z,98802.86
2019-02-05T20:06:01.375Z,98800.34
2019-02-05T20:08:29.796Z,98801.58
2019-02-05T20:10:58.236Z,98802.00
2019-02-05T20:13:26.656Z,98808.97
2019-02-05T20:15:55.520Z,98801.91
2019-02-05T20:18:23.900Z,98798.63
2019-02-05T20:20:52.182Z,98798.09
2019-02-05T20:23:20.572Z,98795.05
2019-02-05T20:25:49.862Z,98799.56
2019-02-05T20:28:18.239Z,98796.77
2019-02-05T20:30:46.587Z,98797.07
2019-02-05T20:33:15.025Z,98802.66
2019-02-05T20:35:43.374Z,98807.16
2019-02-05T20:38:13.294Z,98796.77
2019-02-05T20:40:41.679Z,98797.88
2019-02-05T20:43:09.941Z,98792.33
2019-02-05T20:45:38.237Z,98783.83
2019-02-05T20:48:06.857Z,98786.91
2019-02-05T20:50:35.740Z,98795.86
2019-02-05T20:53:13.634Z,98798.39
2019-02-05T20:55:34.086Z,98797.91
2019-02-05T20:58:02.439Z,98800.47
2019-02-05T21:00:34.144Z,98797.37
2019-02-05T21:03:02.454Z,98809.69
2019-02-05T21:05:35.066Z,98797.25
2019-02-05T21:08:03.338Z,98810.22
2019-02-05T21:10:35.552Z,98789.44
2019-02-05T21:13:03.856Z,98775.89
2019-02-05T21:15:32.213Z,98785.05
2019-02-05T21:18:00.595Z,98784.36
2019-02-05T21:20:34.302Z,98784.94
2019-02-05T21:23:02.801Z,98789.05
2019-02-05T21:25:31.064Z,98791.59
2019-02-05T21:27:59.398Z,98787.38
2019-02-05T21:30:27.910Z,98789.13
2019-02-05T21:32:56.256Z,98791.22
2019-02-05T21:35:24.612Z,98792.30
2019-02-05T21:37:52.880Z,98566.84
2019-02-05T21:40:22.595Z,98789.55
2019-02-05T21:42:50.877Z,98792.44
2019-02-05T21:45:29.503Z,98793.88
2019-02-05T21:47:57.853Z,98799.88
2019-02-05T21:50:26.263Z,98801.48
2019-02-05T21:52:54.539Z,98801.69
2019-02-05T21:55:24.072Z,98799.44
2019-02-05T21:57:52.432Z,98795.05
2019-02-05T22:00:23.417Z,98793.34
2019-02-05T22:02:51.825Z,98788.69
2019-02-05T22:05:20.178Z,98788.97
2019-02-05T22:07:48.438Z,98784.22
2019-02-05T22:10:16.743Z,98777.62
2019-02-05T22:12:45.027Z,98776.24
2019-02-05T22:15:15.934Z,98780.36
2019-02-05T22:17:44.205Z,98779.11
2019-02-05T22:20:15.292Z,98776.38
2019-02-05T22:22:43.630Z,98775.26
2019-02-05T22:25:17.709Z,98773.91
2019-02-05T22:27:46.002Z,98778.09
2019-02-05T22:30:22.484Z,98775.05
2019-02-05T22:32:50.795Z,98777.53
2019-02-05T22:35:19.901Z,98774.80
2019-02-05T22:37:48.656Z,98788.11
2019-02-05T22:40:19.096Z,98782.37
2019-02-05T22:42:49.066Z,98788.27
2019-02-05T22:45:19.928Z,98786.22
2019-02-05T22:47:48.206Z,98794.52
2019-02-05T22:50:22.975Z,98785.80
2019-02-05T22:52:51.354Z,98787.15
2019-02-05T22:55:19.725Z,98111.00
2019-02-05T22:57:48.025Z,98787.99
2019-02-05T23:00:45.595Z,98784.45
2019-02-05T23:03:13.875Z,98777.39
2019-02-05T23:06:14.708Z,98782.59
2019-02-05T23:08:43.001Z,98779.91
2019-02-05T23:11:26.561Z,98783.03
2019-02-05T23:13:54.853Z,98776.76
2019-02-05T23:16:23.150Z,98772.73
2019-02-05T23:18:51.434Z,98769.28
2019-02-05T23:21:19.720Z,98765.16
2019-02-05T23:23:48.169Z,98766.28
2019-02-05T23:26:16.698Z,98755.68
2019-02-05T23:28:45.070Z,98754.23
2019-02-05T23:31:13.362Z,98757.57
2019-02-05T23:33:44.550Z,98753.22
2019-02-05T23:36:11.636Z,98759.80
2019-02-05T23:38:42.208Z,98763.39
2019-02-05T23:41:09.952Z,98758.59
2019-02-05T23:43:38.212Z,98753.88
2019-02-05T23:46:06.519Z,98761.45
2019-02-05T23:48:34.792Z,98759.11
2019-02-05T23:51:03.076Z,98762.05
2019-02-05T23:53:31.361Z,98755.89
2019-02-05T23:55:59.720Z,98753.97
2019-02-05T23:58:28.849Z,98752.31
